»·PEaware :: AAL1152 KMIA-KORD

AAL1152 :: KMIA-KORD

FLIGHT INFORMATION

Flight Status: Arrived
Operator:
American Airlines
More flights by this operator :: More flights under this callsign
Pilot: Drew L. (13237)
Aircraft: BOEING 767-300
(B763)
More flights by this aircraft type
Origin: KMIA Miami Intl
United States
Destination: KORD Chicago-O'Hare Intl
United States
More flights between these airports :: More routes between these airports
Route: HEDLY2 HEDLY ORL J81 VQQ AMG J46 VXV VOSTK HEVAN MZZ VEECK3
File this flight plan on PilotEdge
Remarks:
Altitude:
(Current/Filed)
36,000ft
Speed:
(Current/Filed)
488kts
Departed: 12-May-17 04:56 PM
Arrived: 12-May-17 07:54 PM
Distance/Time
Traveled:
1041nm/2:57
Distance/Time
To Go:
Arrived

Flight Plot

Page will automatically refresh every two minutes.

Flight plan parsing failed; only flown route is shown


Map Options




Map Legend


Flown Route
Filed Route
Departure Airport
Arrival Airport
Navaid (VOR, NDB)
Fix

Horizontal Profiles

Position Reports

Time Latitude Longitude Heading Altitude Ground
Speed
12-May-17 16:52 25.800000 -80.271459 270 17ft 0kts
12-May-17 16:53 25.799881 -80.274536 268 17ft 13kts
12-May-17 16:54 25.799706 -80.279030 268 17ft 22kts
12-May-17 16:55 25.799347 -80.287724 267 17ft 29kts
12-May-17 16:56 25.799001 -80.296889 272 17ft 26kts
12-May-17 16:57 25.800744 -80.300646 89 17ft 1kts
12-May-17 16:58 25.801511 -80.281380 90 139ft 168kts
12-May-17 16:59 25.804805 -80.219710 87 2961ft 237kts
12-May-17 17:00 25.835315 -80.154346 15 6652ft 280kts
12-May-17 17:01 25.911980 -80.172638 341 10277ft 298kts
12-May-17 17:02 25.995179 -80.223771 321 12335ft 375kts
12-May-17 17:03 26.076876 -80.295195 319 16171ft 383kts
12-May-17 17:04 26.159236 -80.367681 318 19526ft 392kts
12-May-17 17:05 26.249143 -80.437654 332 22490ft 408kts
12-May-17 17:06 26.354266 -80.488174 332 25112ft 420kts
12-May-17 17:07 26.462640 -80.539789 332 27492ft 431kts
12-May-17 17:08 26.555215 -80.583920 332 29301ft 440kts
12-May-17 17:09 26.692261 -80.637617 336 31502ft 456kts
12-May-17 17:10 26.791072 -80.674160 334 33493ft 450kts
12-May-17 17:11 26.927053 -80.724663 333 35987ft 439kts
12-May-17 17:12 27.041568 -80.767313 333 35965ft 432kts
12-May-17 17:13 27.126219 -80.798912 333 35973ft 434kts
12-May-17 17:14 27.259527 -80.848744 333 35968ft 433kts
12-May-17 17:15 27.354204 -80.884210 334 35969ft 433kts
12-May-17 17:16 27.487147 -80.934120 334 35968ft 433kts
12-May-17 17:17 27.582065 -80.969833 334 35967ft 433kts
12-May-17 17:18 27.695738 -81.012686 334 35912ft 433kts
12-May-17 17:19 27.809994 -81.055858 334 35911ft 433kts
12-May-17 17:20 27.923858 -81.098976 334 35910ft 433kts
12-May-17 17:21 28.037926 -81.142268 334 35910ft 433kts
12-May-17 17:22 28.150782 -81.185194 334 35911ft 433kts
12-May-17 17:23 28.263936 -81.228328 334 35937ft 433kts
12-May-17 17:24 28.377510 -81.271722 334 35936ft 433kts
12-May-17 17:25 28.490646 -81.315046 334 35908ft 433kts
12-May-17 17:26 28.605055 -81.355479 336 35908ft 436kts
12-May-17 17:27 28.719745 -81.393049 336 35906ft 436kts
12-May-17 17:28 28.834955 -81.430917 336 35905ft 436kts
12-May-17 17:29 28.951924 -81.469459 336 35904ft 438kts
12-May-17 17:30 29.068369 -81.507923 336 35904ft 438kts
12-May-17 17:31 29.184822 -81.546469 336 35905ft 438kts
12-May-17 17:32 29.301107 -81.585057 336 35877ft 438kts
12-May-17 17:33 29.417606 -81.623810 336 35904ft 438kts
12-May-17 17:34 29.533306 -81.662389 335 35921ft 437kts
12-May-17 17:35 29.649688 -81.701287 335 35917ft 437kts
12-May-17 17:36 29.766035 -81.740268 335 35917ft 437kts
12-May-17 17:37 29.882163 -81.779270 335 35916ft 437kts
12-May-17 17:38 29.998162 -81.818322 335 35915ft 437kts
12-May-17 17:39 30.113803 -81.857347 335 35915ft 437kts
12-May-17 17:40 30.229704 -81.896834 331 35895ft 433kts
12-May-17 17:41 30.340344 -81.949287 330 35887ft 432kts
12-May-17 17:42 30.451624 -82.000809 330 35886ft 432kts
12-May-17 17:43 30.562705 -82.052197 330 35885ft 432kts
12-May-17 17:44 30.674038 -82.103813 330 35884ft 432kts
12-May-17 17:45 30.784946 -82.155354 330 35883ft 431kts
12-May-17 17:46 30.895670 -82.206940 330 35882ft 431kts
12-May-17 17:47 31.006843 -82.258867 330 35881ft 431kts
12-May-17 17:48 31.115340 -82.309670 330 35882ft 431kts
12-May-17 17:49 31.226310 -82.361754 330 35881ft 431kts
12-May-17 17:50 31.337031 -82.413860 330 35880ft 431kts
12-May-17 17:51 31.447740 -82.466095 331 35852ft 431kts
12-May-17 17:52 31.559906 -82.515529 336 35852ft 437kts
12-May-17 17:53 31.676021 -82.554076 336 35850ft 437kts
12-May-17 17:54 31.792805 -82.592748 336 35849ft 438kts
12-May-17 17:55 31.909243 -82.631381 336 35848ft 438kts
12-May-17 17:56 32.024519 -82.669718 336 35862ft 437kts
12-May-17 17:57 32.140160 -82.708282 336 35864ft 436kts
12-May-17 17:58 32.256483 -82.747180 336 35863ft 436kts
12-May-17 17:59 32.372764 -82.786163 336 35862ft 436kts
12-May-17 18:00 32.488460 -82.825057 336 35889ft 436kts
12-May-17 18:01 32.604653 -82.864220 336 35888ft 436kts
12-May-17 18:02 32.721330 -82.903655 336 35860ft 436kts
12-May-17 18:03 32.837554 -82.943043 336 35859ft 436kts
12-May-17 18:04 32.953802 -82.982547 336 35858ft 436kts
12-May-17 18:05 33.069791 -83.022071 336 35829ft 437kts
12-May-17 18:06 33.184723 -83.061342 336 35832ft 437kts
12-May-17 18:07 33.301098 -83.101212 336 35831ft 437kts
12-May-17 18:08 33.417197 -83.141102 336 35830ft 437kts
12-May-17 18:09 33.533647 -83.181224 336 35829ft 437kts
12-May-17 18:10 33.649876 -83.221381 336 35855ft 436kts
12-May-17 18:11 33.765930 -83.261592 336 35855ft 436kts
12-May-17 18:12 33.882101 -83.301958 336 35854ft 436kts
12-May-17 18:13 33.999033 -83.339470 339 35854ft 439kts
12-May-17 18:14 34.107423 -83.370286 339 35852ft 439kts
12-May-17 18:15 34.225713 -83.404072 339 35856ft 439kts
12-May-17 18:16 34.344087 -83.437991 339 35880ft 439kts
12-May-17 18:17 34.462299 -83.471965 339 35852ft 439kts
12-May-17 18:18 34.579596 -83.505824 341 35863ft 420kts
12-May-17 18:19 34.690909 -83.537960 341 35859ft 416kts
12-May-17 18:20 34.802622 -83.570323 341 35848ft 414kts
12-May-17 18:21 34.914173 -83.602749 341 35875ft 415kts
12-May-17 18:22 35.025957 -83.635330 341 35873ft 414kts
12-May-17 18:23 35.135330 -83.667295 341 35895ft 414kts
12-May-17 18:24 35.247264 -83.700100 341 35892ft 414kts
12-May-17 18:25 35.358578 -83.732817 341 35891ft 414kts
12-May-17 18:26 35.470135 -83.765697 341 35862ft 414kts
12-May-17 18:27 35.581735 -83.798687 341 35860ft 413kts
12-May-17 18:28 35.693057 -83.831687 341 35859ft 413kts
12-May-17 18:29 35.804115 -83.864704 341 35857ft 414kts
12-May-17 18:30 35.915314 -83.897952 340 35882ft 413kts
12-May-17 18:31 36.026934 -83.932579 340 35870ft 418kts
12-May-17 18:32 36.136905 -83.966828 340 35892ft 413kts
12-May-17 18:33 36.247649 -84.001387 340 35888ft 413kts
12-May-17 18:34 36.358432 -84.036061 341 35914ft 413kts
12-May-17 18:35 36.469446 -84.070907 340 35885ft 413kts
12-May-17 18:36 36.580456 -84.105858 340 35884ft 413kts
12-May-17 18:37 36.691056 -84.140783 341 35909ft 413kts
12-May-17 18:38 36.801657 -84.175810 341 35908ft 413kts
12-May-17 18:39 36.912532 -84.211030 341 35906ft 413kts
12-May-17 18:40 37.023442 -84.246367 341 35904ft 413kts
12-May-17 18:41 37.123348 -84.278289 341 35914ft 413kts
12-May-17 18:42 37.233919 -84.313718 341 35912ft 412kts
12-May-17 18:43 37.345101 -84.349454 341 35911ft 413kts
12-May-17 18:44 37.455286 -84.384978 341 35936ft 412kts
12-May-17 18:45 37.566355 -84.420949 345 35935ft 413kts
12-May-17 18:46 37.677120 -84.456832 345 35936ft 413kts
12-May-17 18:47 37.787718 -84.492815 345 35934ft 413kts
12-May-17 18:48 37.898542 -84.528987 345 35932ft 412kts
12-May-17 18:49 38.009304 -84.565252 345 35931ft 412kts
12-May-17 18:50 38.112147 -84.599026 345 35937ft 412kts
12-May-17 18:51 38.221964 -84.635190 345 35933ft 412kts
12-May-17 18:52 38.330831 -84.671164 344 35917ft 412kts
12-May-17 18:53 38.441319 -84.707774 343 35945ft 410kts
12-May-17 18:54 38.549389 -84.753935 340 35941ft 413kts
12-May-17 18:55 38.656601 -84.803494 339 35939ft 412kts
12-May-17 18:56 38.763121 -84.852920 334 35946ft 412kts
12-May-17 18:57 38.870224 -84.902877 334 35937ft 410kts
12-May-17 18:58 38.977049 -84.952832 334 35936ft 410kts
12-May-17 18:59 39.083633 -85.002825 334 35928ft 410kts
12-May-17 19:00 39.187948 -85.051914 334 35942ft 409kts
12-May-17 19:01 39.294589 -85.102255 334 35941ft 409kts
12-May-17 19:02 39.401205 -85.152730 334 35939ft 409kts
12-May-17 19:03 39.507688 -85.203283 334 35938ft 409kts
12-May-17 19:04 39.613604 -85.253734 334 35965ft 410kts
12-May-17 19:05 39.720358 -85.304749 334 35961ft 409kts
12-May-17 19:06 39.826621 -85.355699 334 35959ft 409kts
12-May-17 19:07 39.932440 -85.406604 334 35958ft 409kts
12-May-17 19:08 40.038738 -85.457911 334 35956ft 409kts
12-May-17 19:09 40.143827 -85.508795 334 35966ft 409kts
12-May-17 19:10 40.250031 -85.560389 334 35963ft 408kts
12-May-17 19:11 40.355880 -85.611989 334 35961ft 408kts
12-May-17 19:12 40.454832 -85.661644 328 35966ft 405kts
12-May-17 19:13 40.530355 -85.764581 302 35977ft 397kts
12-May-17 19:14 40.588387 -85.887919 301 35967ft 397kts
12-May-17 19:15 40.644772 -86.011515 301 35965ft 397kts
12-May-17 19:16 40.701307 -86.136393 301 35963ft 397kts
12-May-17 19:17 40.757627 -86.261348 301 35987ft 397kts
12-May-17 19:18 40.813802 -86.386521 301 35986ft 398kts
12-May-17 19:19 40.869831 -86.511879 301 35984ft 398kts
12-May-17 19:20 40.925721 -86.637429 301 35963ft 398kts
12-May-17 19:21 40.976908 -86.752869 301 35965ft 398kts
12-May-17 19:22 41.032449 -86.878635 301 35990ft 398kts
12-May-17 19:23 41.088180 -87.005365 301 35458ft 401kts
12-May-17 19:24 41.140954 -87.125885 302 34106ft 390kts
12-May-17 19:25 41.194211 -87.247919 302 32524ft 386kts
12-May-17 19:26 41.248112 -87.371971 301 30970ft 393kts
12-May-17 19:27 41.302351 -87.497343 301 29181ft 389kts
12-May-17 19:28 41.355340 -87.620323 301 27347ft 381kts
12-May-17 19:29 41.406506 -87.739559 300 25579ft 374kts
12-May-17 19:30 41.457497 -87.858822 300 23799ft 369kts
12-May-17 19:31 41.506234 -87.973331 300 22704ft 343kts
12-May-17 19:32 41.552162 -88.081592 300 21236ft 332kts
12-May-17 19:33 41.596634 -88.186802 300 18799ft 324kts
12-May-17 19:34 41.639674 -88.288990 299 16198ft 314kts
12-May-17 19:35 41.710747 -88.347439 342 13606ft 316kts
12-May-17 19:36 41.796127 -88.356558 352 10962ft 300kts
12-May-17 19:37 41.872612 -88.359612 6 9088ft 268kts
12-May-17 19:38 41.936669 -88.306867 45 7072ft 274kts
12-May-17 19:39 41.953072 -88.212006 96 5068ft 266kts
12-May-17 19:40 41.958014 -88.118021 93 4216ft 255kts
12-May-17 19:41 41.956686 -88.034540 88 2773ft 205kts
12-May-17 19:42 41.956722 -87.960407 89 2920ft 222kts
12-May-17 19:43 41.954197 -87.876629 92 5032ft 243kts
12-May-17 19:44 41.903662 -87.838938 216 5020ft 218kts
12-May-17 19:45 41.869848 -87.903532 250 4600ft 215kts
12-May-17 19:46 41.870917 -87.982868 272 4026ft 212kts
12-May-17 19:47 41.873802 -88.059415 271 4026ft 194kts
12-May-17 19:48 41.876816 -88.132806 273 4010ft 202kts
12-May-17 19:49 41.877918 -88.205716 272 4032ft 201kts
12-May-17 19:50 41.915768 -88.239389 8 4015ft 197kts
12-May-17 19:51 41.954363 -88.202451 86 4029ft 197kts
12-May-17 19:52 41.957173 -88.129022 88 3691ft 198kts
12-May-17 19:53 41.956512 -88.059121 87 2870ft 167kts
12-May-17 19:54 41.956979 -88.000937 88 1748ft 152kts
12-May-17 19:55 41.957114 -87.947871 89 1039ft 143kts
12-May-17 19:56 41.957345 -87.908156 77 677ft 35kts
12-May-17 19:57 41.958748 -87.901256 359 677ft 8kts
12-May-17 19:58 41.963888 -87.901250 19 677ft 9kts
12-May-17 19:59 41.964098 -87.894931 90 677ft 21kts
12-May-17 20:00 41.966992 -87.891982 8 677ft 14kts
12-May-17 20:01 41.970398 -87.891194 277 677ft 11kts
12-May-17 20:02 41.970398 -87.898799 269 677ft 23kts
12-May-17 20:03 41.972790 -87.901610 0 677ft 13kts
12-May-17 20:04 41.974086 -87.900995 92 677ft 0kts
12-May-17 20:05 41.974086 -87.900995 92 677ft 0kts
12-May-17 20:06 41.974086 -87.900995 92 677ft 0kts
12-May-17 20:07 41.974086 -87.900995 92 677ft 0kts

Navigation Log

Ident Type
Flight plan parsing failed, navigation log unavailable